I Boat 2 — 2CMM8 — position and weather

sailwx.info

Track history (hours):
 
Tides and Currents Weather Stations Pressure Air Temp Water Temp Dewpoint Dewpoint Depression Visibility Wind Speed Wind Dir Waves Ship Positions

I Boat 2

Last reported at 2016-May-16 14:33 UTC. Time now 2016-May-25 07:13 UTC.
Position N 44°06' E 009°51'.
Warning: this ship's position is 8 days out of date.

Length 40 m; draft 2.4 m.

Type: Pleasure craft. MMSI: 235074051.

Date/timePositionNaut miles runAvg speedWind from/ knotsBaromVisibWave heightAir tempDewpointWater temp
2016-May-16 14:33N 44°06' E 009°51'2 2.5
2016-May-16 13:33N 44°03' E 009°51'0 0.0
2016-May-16 12:32N 44°03' E 009°51'0 0.0
2016-May-16 11:29N 44°03' E 009°51'0 0.0
2016-May-16 10:32N 44°03' E 009°51'0 0.0
2016-May-16 09:32N 44°03' E 009°51'0 0.0
2016-May-16 08:29N 44°03' E 009°51'  
2016-May-08 20:25N 44°06' E 009°51'4 5.3
2016-May-08 19:34N 44°02' E 009°49'1514.5
2016-May-08 18:33N 44°07' E 009°30'1514.2
2016-May-08 17:31N 44°13' E 009°11'1414.1
2016-May-08 16:34N 44°18' E 008°54'7 7.3
2016-May-08 15:33N 44°25' E 008°50'4 4.2
2016-May-08 14:33N 44°21' E 008°49'1612.2
2016-May-08 13:16N 44°18' E 009°11'2 1.3
2016-May-08 11:30N 44°19' E 009°13'0 0.0
2016-May-08 09:31N 44°19' E 009°13'0 0.0
2016-May-08 08:28N 44°19' E 009°13'0 0.0
2016-May-08 07:17N 44°19' E 009°13'0 0.0
2016-May-08 03:15N 44°19' E 009°13'0 0.0
2016-May-08 02:33N 44°19' E 009°13'0 0.0
2016-May-08 01:30N 44°19' E 009°13'0 0.0
2016-May-08 00:33N 44°19' E 009°13'0 0.0
2016-May-07 23:25N 44°19' E 009°13'0 0.0
2016-May-07 22:21N 44°19' E 009°13'0 0.0
2016-May-07 21:05N 44°19' E 009°13'11 0.4
2016-May-06 14:33N 44°13' E 009°25'  
Track history (hours):
 
Tides and Currents Weather Stations Pressure Air Temp Water Temp Dewpoint Dewpoint Depression Visibility Wind Speed Wind Dir Waves Ship Positions

I Boat 2

Last reported at 2016-May-16 14:33 UTC. Time now 2016-May-25 07:13 UTC.
Position N 44°06' E 009°51'.
Warning: this ship's position is 8 days out of date.

Length 40 m; draft 2.4 m.

Type: Pleasure craft. MMSI: 235074051.

Date/timePositionNaut miles runAvg speedWind from/ knotsBaromVisibWave heightAir tempDewpointWater temp
2016-May-16 14:33N 44°06' E 009°51'2 2.5
2016-May-16 13:33N 44°03' E 009°51'0 0.0
2016-May-16 12:32N 44°03' E 009°51'0 0.0
2016-May-16 11:29N 44°03' E 009°51'0 0.0
2016-May-16 10:32N 44°03' E 009°51'0 0.0
2016-May-16 09:32N 44°03' E 009°51'0 0.0
2016-May-16 08:29N 44°03' E 009°51'  
2016-May-08 20:25N 44°06' E 009°51'4 5.3
2016-May-08 19:34N 44°02' E 009°49'1514.5
2016-May-08 18:33N 44°07' E 009°30'1514.2
2016-May-08 17:31N 44°13' E 009°11'1414.1
2016-May-08 16:34N 44°18' E 008°54'7 7.3
2016-May-08 15:33N 44°25' E 008°50'4 4.2
2016-May-08 14:33N 44°21' E 008°49'1612.2
2016-May-08 13:16N 44°18' E 009°11'2 1.3
2016-May-08 11:30N 44°19' E 009°13'0 0.0
2016-May-08 09:31N 44°19' E 009°13'0 0.0
2016-May-08 08:28N 44°19' E 009°13'0 0.0
2016-May-08 07:17N 44°19' E 009°13'0 0.0
2016-May-08 03:15N 44°19' E 009°13'0 0.0
2016-May-08 02:33N 44°19' E 009°13'0 0.0
2016-May-08 01:30N 44°19' E 009°13'0 0.0
2016-May-08 00:33N 44°19' E 009°13'0 0.0
2016-May-07 23:25N 44°19' E 009°13'0 0.0
2016-May-07 22:21N 44°19' E 009°13'0 0.0
2016-May-07 21:05N 44°19' E 009°13'11 0.4
2016-May-06 14:33N 44°13' E 009°25'  

Dump ship's entire track history